createdAt,value
2023-03-03T00:00:12.083Z,49.80
2023-03-03T00:01:12.074Z,52.80
2023-03-03T00:02:12.137Z,49.50
2023-03-03T00:03:12.071Z,49.20
2023-03-03T00:04:12.042Z,45.30
2023-03-03T00:05:12.052Z,50.10
2023-03-03T00:06:12.023Z,54.40
2023-03-03T00:07:12.013Z,56.90
2023-03-03T00:08:12.020Z,55.30
2023-03-03T00:09:12.089Z,53.00
2023-03-03T00:10:11.974Z,46.80
2023-03-03T00:11:11.964Z,49.90
2023-03-03T00:12:11.952Z,54.40
2023-03-03T00:13:11.943Z,46.90
2023-03-03T00:14:11.934Z,48.10
2023-03-03T00:15:11.922Z,42.30
2023-03-03T00:16:11.938Z,48.70
2023-03-03T00:17:11.908Z,49.20
2023-03-03T00:18:11.890Z,51.80
2023-03-03T00:19:11.928Z,57.10
2023-03-03T00:20:11.874Z,52.80
2023-03-03T00:21:11.932Z,54.80
2023-03-03T00:22:11.844Z,52.80
2023-03-03T00:23:11.835Z,66.70
2023-03-03T00:24:11.873Z,62.00
2023-03-03T00:25:11.816Z,57.30
2023-03-03T00:26:11.902Z,57.80
2023-03-03T00:27:11.793Z,55.80
2023-03-03T00:28:11.780Z,59.00
2023-03-03T00:29:11.778Z,64.10
2023-03-03T00:30:11.763Z,66.80
2023-03-03T00:31:11.851Z,57.50
2023-03-03T00:32:11.796Z,57.40
2023-03-03T00:33:11.732Z,53.30
2023-03-03T00:34:11.925Z,52.30
2023-03-03T00:35:11.708Z,48.90
2023-03-03T00:36:11.699Z,47.00
2023-03-03T00:37:11.712Z,50.20
2023-03-03T00:38:11.680Z,43.90
2023-03-03T00:39:11.668Z,46.50
2023-03-03T00:40:11.661Z,49.50
2023-03-03T00:41:11.651Z,45.80
2023-03-03T00:42:11.637Z,49.20
2023-03-03T00:43:11.624Z,46.00
2023-03-03T00:44:11.615Z,46.40
2023-03-03T00:45:11.608Z,50.90
2023-03-03T00:46:11.663Z,49.40
2023-03-03T00:47:11.582Z,56.80
2023-03-03T00:48:11.772Z,58.00
2023-03-03T00:49:11.565Z,66.50
2023-03-03T00:50:11.646Z,50.40
2023-03-03T00:51:11.543Z,61.90
2023-03-03T00:52:11.531Z,54.00
2023-03-03T00:53:11.546Z,67.70
2023-03-03T00:54:11.510Z,62.70
2023-03-03T00:55:11.502Z,60.60
2023-03-03T00:56:11.488Z,62.70
2023-03-03T00:57:11.483Z,54.80
2023-03-03T00:58:11.464Z,83.50
2023-03-03T00:59:11.459Z,61.30
2023-03-03T01:00:11.449Z,62.90
2023-03-03T01:01:11.438Z,57.90
2023-03-03T01:02:11.433Z,65.70
2023-03-03T01:03:11.415Z,72.10
2023-03-03T01:04:11.401Z,79.80
2023-03-03T01:05:11.393Z,63.10
2023-03-03T01:06:11.384Z,65.50
2023-03-03T01:07:11.371Z,62.30
2023-03-03T01:08:11.357Z,77.50
2023-03-03T01:09:11.374Z,67.10
2023-03-03T01:10:11.336Z,65.50
2023-03-03T01:11:11.327Z,72.00
2023-03-03T01:12:11.326Z,64.00
2023-03-03T01:13:11.311Z,68.20
2023-03-03T01:14:11.330Z,81.10
2023-03-03T01:15:11.290Z,65.80
2023-03-03T01:16:11.361Z,68.00
2023-03-03T01:17:11.262Z,72.40
2023-03-03T01:18:11.250Z,67.90
2023-03-03T01:19:11.244Z,67.40
2023-03-03T01:20:11.231Z,70.60
2023-03-03T01:21:11.228Z,85.90
2023-03-03T01:22:11.212Z,75.00
2023-03-03T01:23:11.199Z,75.90
2023-03-03T01:24:11.187Z,77.40
2023-03-03T01:25:11.203Z,67.80
2023-03-03T01:26:11.169Z,75.00
2023-03-03T01:27:11.159Z,68.60
2023-03-03T01:28:11.153Z,72.50
2023-03-03T01:29:11.134Z,71.10
2023-03-03T01:30:11.125Z,71.90
2023-03-03T01:31:11.148Z,72.90
2023-03-03T01:32:11.157Z,67.80
2023-03-03T01:33:11.120Z,72.60
2023-03-03T01:34:11.086Z,72.90
2023-03-03T01:35:11.073Z,70.40
2023-03-03T01:36:11.067Z,73.20
2023-03-03T01:37:11.053Z,79.00
2023-03-03T01:38:11.043Z,78.40
2023-03-03T01:39:11.033Z,64.80
2023-03-03T01:40:11.016Z,76.80
2023-03-03T01:41:11.032Z,87.10
2023-03-03T01:42:11.002Z,96.40
2023-03-03T01:43:10.989Z,89.00
2023-03-03T01:44:11.005Z,93.70
2023-03-03T01:45:10.964Z,99.90
2023-03-03T01:46:10.978Z,88.00
2023-03-03T01:47:10.947Z,93.90
2023-03-03T01:48:10.929Z,84.00
2023-03-03T01:49:10.923Z,109.40
2023-03-03T01:50:10.916Z,79.90
2023-03-03T01:51:10.901Z,73.50
2023-03-03T01:52:10.893Z,91.90
2023-03-03T01:53:10.886Z,87.30
2023-03-03T01:54:10.873Z,91.20
2023-03-03T01:55:10.864Z,94.10
2023-03-03T01:56:10.845Z,88.00
2023-03-03T01:57:10.863Z,77.20
2023-03-03T01:58:10.825Z,80.60
2023-03-03T01:59:10.815Z,85.70
2023-03-03T02:00:10.804Z,84.20
2023-03-03T02:01:12.288Z,91.70
2023-03-03T02:02:10.894Z,76.90
2023-03-03T02:03:10.925Z,84.00
2023-03-03T02:04:10.779Z,97.00
2023-03-03T02:05:10.760Z,83.50
2023-03-03T02:06:10.750Z,92.40
2023-03-03T02:07:10.730Z,85.20
2023-03-03T02:08:10.720Z,98.70
2023-03-03T02:09:10.712Z,99.10
2023-03-03T02:10:10.698Z,95.80
2023-03-03T02:11:10.691Z,76.60
2023-03-03T02:12:10.680Z,84.20
2023-03-03T02:13:10.698Z,84.70
2023-03-03T02:14:10.656Z,88.80
2023-03-03T02:15:10.649Z,88.40
2023-03-03T02:16:10.670Z,102.80
2023-03-03T02:17:10.630Z,92.40
2023-03-03T02:18:10.620Z,108.00
2023-03-03T02:19:10.608Z,83.40
2023-03-03T02:20:10.599Z,93.90
2023-03-03T02:21:10.596Z,92.40
2023-03-03T02:22:10.587Z,99.10
2023-03-03T02:23:10.574Z,103.10
2023-03-03T02:24:10.560Z,178.60
2023-03-03T02:25:10.546Z,118.10
2023-03-03T02:26:10.544Z,157.70
2023-03-03T02:27:10.524Z,98.40
2023-03-03T02:28:10.511Z,138.60
2023-03-03T02:29:10.536Z,114.80
2023-03-03T02:30:10.491Z,140.10
2023-03-03T02:31:10.507Z,120.00
2023-03-03T02:32:10.495Z,130.40
2023-03-03T02:33:10.468Z,120.60
2023-03-03T02:34:10.453Z,128.80
2023-03-03T02:35:10.441Z,133.60
2023-03-03T02:36:10.428Z,112.30
2023-03-03T02:37:10.421Z,153.90
2023-03-03T02:38:10.408Z,118.90
2023-03-03T02:39:10.397Z,132.90
2023-03-03T02:40:10.387Z,147.30
2023-03-03T02:41:10.378Z,149.20
2023-03-03T02:42:10.372Z,159.20
2023-03-03T02:43:10.360Z,134.50
2023-03-03T02:44:10.341Z,147.20
2023-03-03T02:45:10.361Z,117.40
2023-03-03T02:46:10.319Z,129.20
2023-03-03T02:47:10.309Z,150.40
2023-03-03T02:48:10.301Z,139.50
2023-03-03T02:49:10.289Z,139.70
2023-03-03T02:50:10.274Z,118.50
2023-03-03T02:51:10.268Z,121.70
2023-03-03T02:52:10.254Z,127.40
2023-03-03T02:53:10.251Z,119.00
2023-03-03T02:54:10.241Z,124.70
2023-03-03T02:55:10.222Z,126.50
2023-03-03T02:56:10.216Z,168.00
2023-03-03T02:57:10.201Z,137.40
2023-03-03T02:58:10.188Z,143.90
2023-03-03T02:59:10.230Z,132.40
2023-03-03T03:00:10.169Z,117.90
2023-03-03T03:01:10.243Z,129.10
2023-03-03T03:02:10.147Z,124.30
2023-03-03T03:03:10.136Z,125.60
2023-03-03T03:04:10.148Z,123.10
2023-03-03T03:05:10.124Z,120.70
2023-03-03T03:06:10.106Z,129.00
2023-03-03T03:07:10.090Z,123.50
2023-03-03T03:08:10.084Z,118.90
2023-03-03T03:09:10.070Z,126.60
2023-03-03T03:10:10.060Z,104.80
2023-03-03T03:11:10.053Z,96.50
2023-03-03T03:12:10.050Z,108.50
2023-03-03T03:13:10.059Z,112.10
2023-03-03T03:14:10.019Z,102.40
2023-03-03T03:15:10.008Z,116.00
2023-03-03T03:16:10.131Z,95.90
2023-03-03T03:17:10.010Z,101.80
2023-03-03T03:18:09.975Z,93.30
2023-03-03T03:19:09.969Z,94.20
2023-03-03T03:20:09.954Z,102.20
2023-03-03T03:21:09.962Z,92.70
2023-03-03T03:22:09.932Z,97.30
2023-03-03T03:23:09.933Z,95.10
2023-03-03T03:24:09.930Z,97.80
2023-03-03T03:25:09.895Z,93.40
2023-03-03T03:26:09.889Z,97.30
2023-03-03T03:27:09.878Z,99.30
2023-03-03T03:28:09.867Z,95.70
2023-03-03T03:29:09.851Z,96.30
2023-03-03T03:30:09.846Z,99.90
2023-03-03T03:31:09.911Z,107.40
2023-03-03T03:32:09.876Z,96.00
2023-03-03T03:33:09.838Z,90.90
2023-03-03T03:34:09.813Z,101.30
2023-03-03T03:35:09.790Z,120.90
2023-03-03T03:36:09.780Z,95.30
2023-03-03T03:37:09.780Z,94.60
2023-03-03T03:38:09.760Z,88.00
2023-03-03T03:39:09.748Z,98.70
2023-03-03T03:40:09.744Z,88.50
2023-03-03T03:41:09.735Z,94.20
2023-03-03T03:42:09.719Z,104.90
2023-03-03T03:43:09.702Z,92.10
2023-03-03T03:44:09.698Z,89.00
2023-03-03T03:45:09.681Z,100.10
2023-03-03T03:46:09.744Z,99.20
2023-03-03T03:47:09.657Z,93.00
2023-03-03T03:48:09.653Z,107.90
2023-03-03T03:49:09.661Z,90.50
2023-03-03T03:50:09.630Z,90.00
2023-03-03T03:51:09.618Z,97.00
2023-03-03T03:52:09.619Z,85.80
2023-03-03T03:53:09.596Z,86.70
2023-03-03T03:54:09.591Z,93.70
2023-03-03T03:55:09.575Z,89.80
2023-03-03T03:56:09.566Z,87.10
2023-03-03T03:57:09.560Z,87.70
2023-03-03T03:58:09.545Z,84.10
2023-03-03T03:59:09.538Z,73.90
2023-03-03T04:00:09.536Z,71.80
2023-03-03T04:01:09.513Z,77.40
2023-03-03T04:02:09.640Z,83.60
2023-03-03T04:03:09.670Z,82.50
2023-03-03T04:04:09.484Z,82.20
2023-03-03T04:05:09.498Z,67.00
2023-03-03T04:06:09.473Z,102.40
2023-03-03T04:07:11.429Z,79.80
2023-03-03T04:08:09.451Z,103.20
2023-03-03T04:09:09.430Z,87.80
2023-03-03T04:10:09.420Z,81.90
2023-03-03T04:11:09.409Z,86.30
2023-03-03T04:12:09.398Z,73.50
2023-03-03T04:13:09.387Z,81.40
2023-03-03T04:14:09.378Z,71.00
2023-03-03T04:15:09.364Z,70.00
2023-03-03T04:16:09.430Z,75.90
2023-03-03T04:17:09.343Z,69.00
2023-03-03T04:18:09.336Z,83.50
2023-03-03T04:19:09.326Z,89.50
2023-03-03T04:20:09.315Z,81.00
2023-03-03T04:21:09.325Z,77.30
2023-03-03T04:22:09.292Z,87.80
2023-03-03T04:23:09.280Z,77.00
2023-03-03T04:24:09.296Z,80.70
2023-03-03T04:25:09.273Z,150.30
2023-03-03T04:26:09.252Z,121.90
2023-03-03T04:27:09.238Z,114.60
2023-03-03T04:28:09.226Z,68.50
2023-03-03T04:29:09.216Z,81.50
2023-03-03T04:30:09.229Z,94.50
2023-03-03T04:31:09.306Z,87.10
2023-03-03T04:32:09.251Z,104.70
2023-03-03T04:33:09.171Z,131.40
2023-03-03T04:34:09.164Z,97.60
2023-03-03T04:35:09.153Z,91.00
2023-03-03T04:36:09.145Z,103.70
2023-03-03T04:37:09.155Z,82.00
2023-03-03T04:38:09.120Z,82.00
2023-03-03T04:39:09.106Z,81.30
2023-03-03T04:40:09.099Z,91.70
2023-03-03T04:41:09.093Z,160.60
2023-03-03T04:42:09.083Z,168.30
2023-03-03T04:43:09.068Z,151.40
2023-03-03T04:44:09.056Z,143.50
2023-03-03T04:45:09.105Z,174.50
2023-03-03T04:46:09.070Z,205.90
2023-03-03T04:47:09.030Z,148.20
2023-03-03T04:48:09.018Z,233.40
2023-03-03T04:49:12.043Z,170.10
2023-03-03T04:50:08.995Z,155.30
2023-03-03T04:51:08.989Z,160.90
2023-03-03T04:52:08.972Z,221.70
2023-03-03T04:53:08.986Z,222.90
2023-03-03T04:54:08.970Z,123.80
2023-03-03T04:55:10.483Z,174.60
2023-03-03T04:56:08.929Z,150.30
2023-03-03T04:57:08.922Z,206.00
2023-03-03T04:58:08.908Z,178.30
2023-03-03T04:59:08.896Z,129.90
2023-03-03T05:00:08.891Z,116.90
2023-03-03T05:01:08.881Z,139.30
2023-03-03T05:02:08.871Z,148.90
2023-03-03T05:03:08.852Z,192.90
2023-03-03T05:04:08.841Z,207.30
2023-03-03T05:05:08.824Z,245.90
2023-03-03T05:06:08.818Z,239.90
2023-03-03T05:07:08.802Z,206.50
2023-03-03T05:08:08.792Z,219.00
2023-03-03T05:09:08.805Z,175.40
2023-03-03T05:10:08.782Z,144.70
2023-03-03T05:11:08.758Z,115.30
2023-03-03T05:12:08.756Z,130.80
2023-03-03T05:13:08.740Z,134.40
2023-03-03T05:14:08.753Z,100.40
2023-03-03T05:15:08.761Z,117.30
2023-03-03T05:16:08.790Z,145.10
2023-03-03T05:17:08.806Z,141.00
2023-03-03T05:18:08.818Z,143.70
2023-03-03T05:19:08.800Z,155.30
2023-03-03T05:20:08.823Z,154.30
2023-03-03T05:21:08.674Z,130.80
2023-03-03T05:22:08.643Z,142.30
2023-03-03T05:23:08.629Z,177.20
2023-03-03T05:24:08.623Z,177.40
2023-03-03T05:25:08.634Z,152.90
2023-03-03T05:26:08.601Z,154.60
2023-03-03T05:27:08.586Z,136.20
2023-03-03T05:28:08.574Z,143.10
2023-03-03T05:29:08.579Z,181.20
2023-03-03T05:30:08.549Z,183.10
2023-03-03T05:31:08.561Z,186.60
2023-03-03T05:32:08.569Z,163.30
2023-03-03T05:33:08.519Z,158.40
2023-03-03T05:34:08.512Z,150.50
2023-03-03T05:35:08.495Z,163.40
2023-03-03T05:36:08.487Z,150.10
2023-03-03T05:37:08.475Z,129.20
2023-03-03T05:38:08.478Z,143.40
2023-03-03T05:39:08.456Z,165.30
2023-03-03T05:40:08.443Z,126.00
2023-03-03T05:41:08.458Z,135.20
2023-03-03T05:42:08.431Z,141.20
2023-03-03T05:43:08.412Z,141.30
2023-03-03T05:44:08.403Z,134.00
2023-03-03T05:45:08.394Z,129.70
2023-03-03T05:46:08.377Z,126.30
2023-03-03T05:47:08.366Z,146.90
2023-03-03T05:48:08.358Z,142.00
2023-03-03T05:49:08.346Z,133.10
2023-03-03T05:50:08.334Z,140.70
2023-03-03T05:51:08.324Z,156.80
2023-03-03T05:52:08.313Z,126.20
2023-03-03T05:53:08.304Z,122.30
2023-03-03T05:54:08.292Z,145.10
2023-03-03T05:55:08.284Z,115.30
2023-03-03T05:56:08.275Z,104.00
2023-03-03T05:57:08.288Z,103.70
2023-03-03T05:58:08.249Z,99.50
2023-03-03T05:59:08.238Z,98.30
2023-03-03T06:00:08.229Z,103.00
2023-03-03T06:01:08.226Z,99.50
2023-03-03T06:02:08.308Z,102.40
2023-03-03T06:03:08.268Z,97.40
2023-03-03T06:04:08.183Z,95.30
2023-03-03T06:05:08.175Z,91.70
2023-03-03T06:06:08.167Z,96.30
2023-03-03T06:07:08.151Z,97.60
2023-03-03T06:08:08.145Z,88.50
2023-03-03T06:09:08.139Z,107.60
2023-03-03T06:10:08.127Z,95.90
2023-03-03T06:11:08.106Z,98.40
2023-03-03T06:12:08.097Z,105.10
2023-03-03T06:13:08.112Z,103.40
2023-03-03T06:14:08.075Z,110.00
2023-03-03T06:15:08.113Z,98.70
2023-03-03T06:16:08.179Z,86.90
2023-03-03T06:17:08.042Z,68.90
2023-03-03T06:18:08.033Z,78.10
2023-03-03T06:19:08.019Z,72.50
2023-03-03T06:20:08.009Z,75.90
2023-03-03T06:21:07.995Z,61.60
2023-03-03T06:22:07.988Z,67.00
2023-03-03T06:23:07.995Z,61.10
2023-03-03T06:24:07.971Z,60.80
2023-03-03T06:25:07.957Z,59.00
2023-03-03T06:26:07.950Z,55.50
2023-03-03T06:27:07.945Z,56.70
2023-03-03T06:28:07.920Z,60.50
2023-03-03T06:29:07.935Z,63.40
2023-03-03T06:30:07.912Z,55.50
2023-03-03T06:31:07.885Z,47.20
2023-03-03T06:32:08.055Z,44.70
2023-03-03T06:33:07.862Z,50.00
2023-03-03T06:34:07.854Z,46.60
2023-03-03T06:35:07.874Z,50.30
2023-03-03T06:36:07.826Z,42.10
2023-03-03T06:37:07.814Z,46.50
2023-03-03T06:38:07.813Z,33.80
2023-03-03T06:39:07.802Z,38.80
2023-03-03T06:40:07.783Z,39.30
2023-03-03T06:41:07.775Z,38.20
2023-03-03T06:42:07.757Z,39.00
2023-03-03T06:43:07.745Z,30.10
2023-03-03T06:44:07.746Z,30.20
2023-03-03T06:45:07.746Z,33.70
2023-03-03T06:46:07.793Z,34.00
2023-03-03T06:47:07.701Z,32.10
2023-03-03T06:48:07.697Z,33.60
2023-03-03T06:49:07.679Z,30.50
2023-03-03T06:50:07.667Z,28.70
2023-03-03T06:51:07.654Z,31.20
2023-03-03T06:52:07.644Z,32.20
2023-03-03T06:53:07.637Z,27.90
2023-03-03T06:54:07.632Z,29.30
2023-03-03T06:55:07.613Z,27.30
2023-03-03T06:56:07.606Z,28.70
2023-03-03T06:57:07.594Z,26.60
2023-03-03T06:58:07.587Z,31.40
2023-03-03T06:59:07.566Z,22.80
2023-03-03T07:00:07.559Z,25.30
2023-03-03T07:01:07.645Z,24.60
2023-03-03T07:02:07.539Z,26.80
2023-03-03T07:03:07.523Z,21.50
2023-03-03T07:04:07.574Z,21.70
2023-03-03T07:05:07.506Z,24.10
2023-03-03T07:06:07.497Z,23.60
2023-03-03T07:07:07.517Z,22.80
2023-03-03T07:08:07.475Z,23.40
2023-03-03T07:09:07.464Z,22.20
2023-03-03T07:10:07.510Z,22.90
2023-03-03T07:11:07.495Z,18.60
2023-03-03T07:12:07.436Z,21.20
2023-03-03T07:13:07.446Z,21.80
2023-03-03T07:14:07.415Z,19.00
2023-03-03T07:15:07.408Z,20.30
2023-03-03T07:16:07.399Z,18.60
2023-03-03T07:17:07.412Z,18.70
2023-03-03T07:18:07.381Z,19.80
2023-03-03T07:19:07.364Z,18.00
2023-03-03T07:20:07.369Z,18.40
2023-03-03T07:21:07.345Z,20.40
2023-03-03T07:22:07.330Z,21.90
2023-03-03T07:23:07.372Z,20.90
2023-03-03T07:24:07.327Z,20.60
2023-03-03T07:25:07.301Z,19.50
2023-03-03T07:26:07.287Z,21.30
2023-03-03T07:27:07.277Z,21.10
2023-03-03T07:28:07.270Z,22.60
2023-03-03T07:29:07.259Z,19.00
2023-03-03T07:30:07.242Z,19.60
2023-03-03T07:31:07.277Z,21.80
2023-03-03T07:32:07.241Z,15.90
2023-03-03T07:33:07.270Z,15.10
2023-03-03T07:34:07.201Z,17.20
2023-03-03T07:35:07.191Z,16.50
2023-03-03T07:36:07.187Z,16.50
2023-03-03T07:37:07.168Z,19.50
2023-03-03T07:38:07.155Z,18.40
2023-03-03T07:39:07.163Z,20.30
2023-03-03T07:40:07.136Z,19.40
2023-03-03T07:41:07.126Z,20.20
2023-03-03T07:42:07.119Z,21.50
2023-03-03T07:43:07.107Z,20.90
2023-03-03T07:44:07.102Z,19.50
2023-03-03T07:45:07.087Z,22.80
2023-03-03T07:46:07.120Z,22.50
2023-03-03T07:47:07.061Z,19.20
2023-03-03T07:48:07.048Z,19.10
2023-03-03T07:49:07.062Z,19.10
2023-03-03T07:50:07.026Z,16.40
2023-03-03T07:51:07.016Z,18.30
2023-03-03T07:52:07.004Z,21.00
2023-03-03T07:53:06.996Z,18.30
2023-03-03T07:54:06.985Z,19.00
2023-03-03T07:55:06.974Z,19.10
2023-03-03T07:56:06.961Z,22.20
2023-03-03T07:57:06.958Z,21.20
2023-03-03T07:58:06.942Z,20.50
2023-03-03T07:59:06.943Z,20.40
2023-03-03T08:00:06.922Z,17.80
2023-03-03T08:01:06.941Z,19.90
2023-03-03T08:02:06.896Z,20.40
2023-03-03T08:03:06.889Z,18.90
2023-03-03T08:04:06.984Z,20.20
2023-03-03T08:05:07.028Z,20.10
2023-03-03T08:06:06.853Z,20.40
2023-03-03T08:07:06.864Z,21.30
2023-03-03T08:08:06.831Z,21.10
2023-03-03T08:09:06.833Z,18.50
2023-03-03T08:10:06.924Z,18.40
2023-03-03T08:11:06.805Z,18.30
2023-03-03T08:12:06.800Z,18.90
2023-03-03T08:13:06.815Z,18.70
2023-03-03T08:14:06.758Z,18.60
2023-03-03T08:15:06.752Z,20.60
2023-03-03T08:16:06.770Z,19.10
2023-03-03T08:17:06.723Z,19.70
2023-03-03T08:18:06.717Z,17.60
2023-03-03T08:19:06.710Z,17.80
2023-03-03T08:20:06.688Z,17.50
2023-03-03T08:21:06.846Z,19.70
2023-03-03T08:22:06.663Z,18.70
2023-03-03T08:23:06.653Z,17.30
2023-03-03T08:24:06.649Z,15.00
2023-03-03T08:25:06.634Z,18.00
2023-03-03T08:26:06.617Z,16.70
2023-03-03T08:27:06.609Z,17.20
2023-03-03T08:28:06.594Z,17.00
2023-03-03T08:29:06.783Z,15.20
2023-03-03T08:30:06.566Z,16.30
2023-03-03T08:31:18.477Z,15.80
2023-03-03T08:32:07.681Z,14.20
2023-03-03T08:33:06.540Z,15.70
2023-03-03T08:34:06.558Z,13.70
2023-03-03T08:35:06.535Z,17.50
2023-03-03T08:36:08.563Z,14.90
2023-03-03T08:37:06.519Z,16.50
2023-03-03T08:38:06.506Z,14.70
2023-03-03T08:39:06.474Z,15.60
2023-03-03T08:40:06.467Z,13.80
2023-03-03T08:41:06.450Z,13.40
2023-03-03T08:42:06.435Z,13.60
2023-03-03T08:43:06.427Z,14.10
2023-03-03T08:44:06.429Z,14.10
2023-03-03T08:45:06.404Z,12.60
2023-03-03T08:46:06.461Z,14.90
2023-03-03T08:47:06.374Z,12.40
2023-03-03T08:48:06.412Z,13.60
2023-03-03T08:49:06.358Z,12.90
2023-03-03T08:50:06.421Z,12.70
2023-03-03T08:51:06.335Z,13.80
2023-03-03T08:52:06.323Z,14.60
2023-03-03T08:53:06.340Z,15.90
2023-03-03T08:54:06.307Z,13.60
2023-03-03T08:55:07.722Z,16.20
2023-03-03T08:56:06.286Z,13.20
2023-03-03T08:57:06.282Z,13.70
2023-03-03T08:58:06.262Z,13.50
2023-03-03T08:59:06.250Z,14.80
2023-03-03T09:00:06.238Z,17.40
2023-03-03T09:01:06.233Z,16.50
2023-03-03T09:02:06.313Z,18.00
2023-03-03T09:03:06.201Z,14.50
2023-03-03T09:04:06.293Z,18.00
2023-03-03T09:05:06.184Z,13.80
2023-03-03T09:06:06.173Z,13.60
2023-03-03T09:07:06.160Z,13.80
2023-03-03T09:08:06.152Z,13.90
2023-03-03T09:09:06.158Z,13.30
2023-03-03T09:10:06.132Z,16.80
2023-03-03T09:11:06.120Z,19.00
2023-03-03T09:12:06.104Z,15.80
2023-03-03T09:13:06.093Z,16.00
2023-03-03T09:14:06.084Z,16.70
2023-03-03T09:15:06.075Z,13.50
2023-03-03T09:16:06.120Z,14.20
2023-03-03T09:17:06.106Z,15.80
2023-03-03T09:18:06.038Z,14.20
2023-03-03T09:19:06.023Z,14.10
2023-03-03T09:20:06.015Z,16.10
2023-03-03T09:21:06.009Z,13.80
2023-03-03T09:22:06.005Z,12.70
2023-03-03T09:23:05.979Z,15.00
2023-03-03T09:24:05.974Z,13.60
2023-03-03T09:25:05.987Z,14.60
2023-03-03T09:26:05.955Z,14.60
2023-03-03T09:27:05.938Z,14.60
2023-03-03T09:28:05.925Z,16.50
2023-03-03T09:29:05.913Z,13.90
2023-03-03T09:30:05.917Z,15.10
2023-03-03T09:31:07.518Z,13.10
2023-03-03T09:32:06.016Z,13.80
2023-03-03T09:33:05.871Z,11.10
2023-03-03T09:34:05.858Z,13.10
2023-03-03T09:35:05.848Z,13.50
2023-03-03T09:36:05.841Z,13.50
2023-03-03T09:37:05.826Z,17.20
2023-03-03T09:38:05.812Z,18.90
2023-03-03T09:39:05.803Z,16.00
2023-03-03T09:40:05.792Z,15.80
2023-03-03T09:41:05.801Z,16.50
2023-03-03T09:42:05.768Z,18.10
2023-03-03T09:43:05.761Z,17.30
2023-03-03T09:44:05.781Z,15.10
2023-03-03T09:45:05.735Z,18.20
2023-03-03T09:46:05.750Z,15.90
2023-03-03T09:47:05.715Z,17.10
2023-03-03T09:48:05.746Z,15.50
2023-03-03T09:49:05.700Z,15.30
2023-03-03T09:50:05.693Z,16.70
2023-03-03T09:51:05.674Z,15.40
2023-03-03T09:52:05.662Z,17.30
2023-03-03T09:53:05.647Z,15.80
2023-03-03T09:54:05.647Z,16.10
2023-03-03T09:55:05.632Z,16.80
2023-03-03T09:56:05.617Z,26.50
2023-03-03T09:57:05.659Z,22.90
2023-03-03T09:58:10.922Z,18.50
2023-03-03T09:59:05.581Z,16.80
2023-03-03T10:00:05.573Z,14.80
2023-03-03T10:01:05.568Z,14.20
2023-03-03T10:02:06.590Z,14.30
2023-03-03T10:03:05.555Z,13.40
2023-03-03T10:04:05.730Z,14.90
2023-03-03T10:05:05.515Z,15.50
2023-03-03T10:06:05.504Z,15.70
2023-03-03T10:07:05.489Z,15.10
2023-03-03T10:08:05.480Z,16.40
2023-03-03T10:09:05.477Z,14.70
2023-03-03T10:10:05.471Z,14.00
2023-03-03T10:11:05.450Z,14.00
2023-03-03T10:12:05.444Z,16.90
2023-03-03T10:13:05.464Z,14.00
2023-03-03T10:14:05.525Z,13.90
2023-03-03T10:15:05.409Z,17.50
2023-03-03T10:16:05.431Z,13.40
2023-03-03T10:17:05.391Z,15.50
2023-03-03T10:18:05.381Z,14.00
2023-03-03T10:19:05.370Z,13.60
2023-03-03T10:20:05.352Z,12.80
2023-03-03T10:21:05.341Z,14.90
2023-03-03T10:22:05.329Z,15.80
2023-03-03T10:23:05.331Z,13.70
2023-03-03T10:24:05.345Z,15.40
2023-03-03T10:25:05.320Z,14.60
2023-03-03T10:26:05.309Z,12.30
2023-03-03T10:27:13.492Z,11.90
2023-03-03T10:28:06.295Z,13.60
2023-03-03T10:29:05.331Z,12.70
2023-03-03T10:30:05.249Z,14.10
2023-03-03T10:31:10.727Z,10.40
2023-03-03T10:32:06.430Z,10.00
2023-03-03T10:33:05.415Z,11.80
2023-03-03T10:34:05.249Z,7.70
2023-03-03T10:35:05.184Z,9.50
2023-03-03T10:36:07.745Z,10.30
2023-03-03T10:37:05.161Z,8.70
2023-03-03T10:38:05.156Z,6.60
2023-03-03T10:39:05.144Z,8.80
2023-03-03T10:40:05.164Z,9.00
2023-03-03T10:41:05.118Z,9.40
2023-03-03T10:42:05.108Z,8.50
2023-03-03T10:43:05.095Z,9.20
2023-03-03T10:44:05.086Z,7.60
2023-03-03T10:45:05.097Z,7.10
2023-03-03T10:46:05.115Z,7.80
2023-03-03T10:47:05.049Z,6.90
2023-03-03T10:48:05.046Z,8.70
2023-03-03T10:49:05.029Z,10.40
2023-03-03T10:50:05.020Z,9.40
2023-03-03T10:51:05.011Z,9.30
2023-03-03T10:52:05.699Z,11.70
2023-03-03T10:53:04.987Z,8.60
2023-03-03T10:54:05.321Z,10.40
2023-03-03T10:55:04.962Z,9.20
2023-03-03T10:56:04.949Z,8.30
2023-03-03T10:57:04.945Z,10.90
2023-03-03T10:58:04.927Z,8.80
2023-03-03T10:59:04.920Z,6.90
2023-03-03T11:00:04.909Z,6.50
2023-03-03T11:01:05.018Z,5.60
2023-03-03T11:02:04.887Z,10.30
2023-03-03T11:03:04.882Z,9.20
2023-03-03T11:04:04.915Z,7.30
2023-03-03T11:05:04.853Z,7.30
2023-03-03T11:06:04.843Z,9.50
2023-03-03T11:07:06.694Z,9.20
2023-03-03T11:08:04.821Z,6.70
2023-03-03T11:09:04.813Z,8.20
2023-03-03T11:10:04.808Z,7.60
2023-03-03T11:11:04.786Z,7.40
2023-03-03T11:12:04.777Z,6.80
2023-03-03T11:13:04.767Z,8.10
2023-03-03T11:14:04.754Z,8.80
2023-03-03T11:15:04.747Z,8.40
2023-03-03T11:16:04.735Z,7.80
2023-03-03T11:17:04.808Z,8.80
2023-03-03T11:18:04.710Z,8.90
2023-03-03T11:19:04.817Z,8.30
2023-03-03T11:20:04.701Z,7.20
2023-03-03T11:21:04.682Z,8.70
2023-03-03T11:22:04.668Z,6.30
2023-03-03T11:23:04.658Z,6.60
2023-03-03T11:24:04.646Z,7.60
2023-03-03T11:25:04.634Z,7.50
2023-03-03T11:26:04.628Z,8.30
2023-03-03T11:27:04.648Z,8.80
2023-03-03T11:28:04.598Z,7.20
2023-03-03T11:29:04.591Z,8.90
2023-03-03T11:30:04.576Z,9.10
2023-03-03T11:31:04.601Z,6.80
2023-03-03T11:32:04.560Z,8.40
2023-03-03T11:33:04.570Z,7.80
2023-03-03T11:34:04.532Z,10.50
2023-03-03T11:35:04.523Z,10.80
2023-03-03T11:36:04.594Z,9.10
2023-03-03T11:37:04.501Z,9.60
2023-03-03T11:38:04.489Z,7.70
2023-03-03T11:39:04.576Z,9.70
2023-03-03T11:40:04.472Z,12.10
2023-03-03T11:41:04.461Z,9.40
2023-03-03T11:42:04.462Z,8.00
2023-03-03T11:43:04.436Z,6.70
2023-03-03T11:44:04.423Z,8.80
2023-03-03T11:45:04.418Z,10.60
2023-03-03T11:46:04.459Z,9.10
2023-03-03T11:47:04.403Z,8.10
2023-03-03T11:48:04.382Z,10.00
2023-03-03T11:49:04.394Z,10.40
2023-03-03T11:50:04.467Z,10.10
2023-03-03T11:51:04.351Z,9.80
2023-03-03T11:52:04.337Z,9.60
2023-03-03T11:53:04.361Z,7.80
2023-03-03T11:54:04.415Z,9.30
2023-03-03T11:55:04.304Z,8.50
2023-03-03T11:56:04.300Z,10.70
2023-03-03T11:57:04.281Z,8.90
2023-03-03T11:58:04.273Z,10.50
2023-03-03T11:59:04.259Z,9.80
2023-03-03T12:00:04.257Z,7.70
2023-03-03T12:01:04.245Z,7.40
2023-03-03T12:02:04.231Z,9.20
2023-03-03T12:03:04.229Z,9.40
2023-03-03T12:04:04.210Z,11.30
2023-03-03T12:05:04.221Z,8.10
2023-03-03T12:06:04.243Z,8.90
2023-03-03T12:07:17.955Z,10.00
2023-03-03T12:08:04.217Z,10.30
2023-03-03T12:09:04.226Z,6.90
2023-03-03T12:10:04.134Z,6.70
2023-03-03T12:11:04.125Z,8.90
2023-03-03T12:12:04.133Z,10.20
2023-03-03T12:13:04.122Z,7.90
2023-03-03T12:14:04.131Z,8.40
2023-03-03T12:15:04.083Z,7.80
2023-03-03T12:16:04.135Z,6.30
2023-03-03T12:17:04.084Z,8.10
2023-03-03T12:18:04.066Z,8.30
2023-03-03T12:19:04.038Z,8.90
2023-03-03T12:20:04.058Z,7.30
2023-03-03T12:21:04.075Z,8.50
2023-03-03T12:22:04.036Z,5.50
2023-03-03T12:23:07.309Z,6.80
2023-03-03T12:24:04.914Z,6.10
2023-03-03T12:25:03.997Z,9.00
2023-03-03T12:26:04.029Z,8.30
2023-03-03T12:27:04.011Z,7.30
2023-03-03T12:28:04.058Z,9.60
2023-03-03T12:29:04.045Z,11.70
2023-03-03T12:30:05.365Z,9.40
2023-03-03T12:31:04.116Z,10.80
2023-03-03T12:32:04.114Z,18.90
2023-03-03T12:33:03.951Z,11.30
2023-03-03T12:34:03.890Z,10.40
2023-03-03T12:35:03.884Z,10.00
2023-03-03T12:36:03.902Z,6.10
2023-03-03T12:37:03.887Z,7.80
2023-03-03T12:38:03.867Z,7.30
2023-03-03T12:39:03.905Z,6.50
2023-03-03T12:40:03.835Z,5.70
2023-03-03T12:41:03.815Z,7.70
2023-03-03T12:42:05.290Z,6.20
2023-03-03T12:43:03.806Z,10.10
2023-03-03T12:44:03.781Z,9.70
2023-03-03T12:45:03.771Z,8.30
2023-03-03T12:46:03.759Z,7.50
2023-03-03T12:47:03.872Z,9.30
2023-03-03T12:48:03.737Z,7.00
2023-03-03T12:49:03.736Z,6.50
2023-03-03T12:50:07.816Z,6.70
2023-03-03T12:51:03.714Z,5.30